Time;durP1;ratioP1;P1;durP2;ratioP2;P2;SDS_P1;SDS_P2;PMS_P1;PMS_P2;Temp;Humidity;BMP_temperature;BMP_pressure;BME280_temperature;BME280_humidity;BME280_pressure;Samples;Min_cycle;Max_cycle;Signal;HPM_P1;HPM_P2
2022/06/18 00:01:35;;;;;;;4.80;2.90;;;23.70;89.50;;;;;;5068749;28;20032;-75
2022/06/18 00:04:04;;;;;;;7.47;3.50;;;23.60;89.60;;;;;;5067077;28;20111;-72
2022/06/18 00:06:34;;;;;;;11.20;3.90;;;23.60;89.40;;;;;;5068689;28;20022;-74
2022/06/18 00:09:00;;;;;;;6.93;4.03;;;24.00;89.00;;;;;;5085651;28;20066;-73
2022/06/18 00:14:11;;;;;;;6.22;3.65;;;23.80;89.10;;;;;;5092990;28;20067;-72
2022/06/18 00:16:37;;;;;;;7.25;3.65;;;23.60;89.50;;;;;;5084489;28;20035;-73
2022/06/18 00:19:03;;;;;;;7.38;3.80;;;23.50;90.00;;;;;;5067037;28;20723;-73
2022/06/18 00:21:29;;;;;;;8.48;4.20;;;23.60;90.00;;;;;;5069804;28;20033;-73
2022/06/18 00:23:54;;;;;;;6.65;3.65;;;23.50;89.80;;;;;;5070527;28;20061;-72
2022/06/18 00:26:20;;;;;;;7.82;4.30;;;23.40;90.20;;;;;;5068326;28;20496;-74
2022/06/18 00:28:46;;;;;;;7.55;3.35;;;23.30;90.30;;;;;;5075645;28;20036;-73
2022/06/18 00:31:12;;;;;;;6.82;3.30;;;23.20;90.30;;;;;;5066960;28;20440;-72
2022/06/18 00:33:40;;;;;;;9.43;3.53;;;23.30;90.30;;;;;;5076283;28;20040;-73
2022/06/18 00:36:13;;;;;;;7.22;3.78;;;23.30;90.10;;;;;;5066530;28;20024;-72
2022/06/18 00:38:42;;;;;;;6.13;3.58;;;23.10;90.30;;;;;;5069049;28;20461;-73
2022/06/18 00:41:11;;;;;;;6.70;3.88;;;23.00;90.40;;;;;;5066421;28;20478;-73
2022/06/18 00:43:45;;;;;;;8.05;4.43;;;23.30;89.90;;;;;;5065492;28;20150;-73
2022/06/18 00:46:18;;;;;;;8.13;3.63;;;23.40;90.40;;;;;;5064956;28;20519;-73
2022/06/18 00:49:03;;;;;;;8.45;3.58;;;23.10;90.30;;;;;;5064682;28;20730;-73
2022/06/18 00:51:35;;;;;;;6.38;3.40;;;23.20;90.20;;;;;;5075789;28;20486;-73
2022/06/18 00:54:27;;;;;;;6.72;3.90;;;23.20;90.20;;;;;;5063984;28;20060;-73
2022/06/18 00:57:11;;;;;;;7.38;3.85;;;22.90;90.50;;;;;;5065733;28;20223;-73
2022/06/18 00:59:55;;;;;;;6.90;3.38;;;23.00;90.70;;;;;;5068768;28;20572;-73
2022/06/18 01:02:28;;;;;;;7.78;4.00;;;22.80;90.70;;;;;;5065906;28;20040;-74
2022/06/18 01:04:53;;;;;;;7.95;4.07;;;22.80;91.00;;;;;;5064022;28;20131;-73
2022/06/18 01:07:33;;;;;;;11.15;3.88;;;22.60;91.20;;;;;;5066314;28;20036;-74
2022/06/18 01:10:01;;;;;;;6.13;3.55;;;22.60;91.30;;;;;;5067932;28;20029;-74
2022/06/18 01:12:27;;;;;;;5.60;3.90;;;22.50;91.50;;;;;;5065688;28;20039;-74
2022/06/18 01:15:07;;;;;;;8.18;3.83;;;22.50;91.30;;;;;;5068571;28;20068;-74
2022/06/18 01:17:35;;;;;;;7.15;3.83;;;22.50;91.40;;;;;;5066117;28;20493;-74
2022/06/18 01:20:04;;;;;;;4.90;3.45;;;22.40;91.60;;;;;;5068984;28;20481;-74
2022/06/18 01:22:38;;;;;;;8.50;3.78;;;22.40;91.60;;;;;;5078101;28;20019;-74
2022/06/18 01:25:06;;;;;;;6.18;4.07;;;22.30;91.80;;;;;;5083275;28;20427;-74
2022/06/18 01:27:34;;;;;;;8.80;4.32;;;22.40;91.70;;;;;;5070691;28;20028;-74
2022/06/18 01:29:59;;;;;;;6.15;4.05;;;22.50;91.60;;;;;;5070433;28;20036;-74
2022/06/18 01:32:25;;;;;;;8.15;4.05;;;22.50;91.50;;;;;;5065587;28;20039;-74
2022/06/18 01:34:52;;;;;;;9.45;4.55;;;22.50;91.60;;;;;;5065274;28;20043;-74
2022/06/18 01:37:18;;;;;;;7.13;3.83;;;22.50;91.50;;;;;;5069401;28;20059;-74
2022/06/18 01:39:46;;;;;;;7.13;4.22;;;22.60;91.50;;;;;;5065515;28;20543;-74
2022/06/18 01:42:22;;;;;;;8.48;4.28;;;22.50;91.80;;;;;;5065176;28;20024;-74
2022/06/18 01:45:05;;;;;;;5.85;3.83;;;22.50;91.40;;;;;;5082529;28;20032;-74
2022/06/18 01:48:18;;;;;;;8.15;4.95;;;22.50;91.60;;;;;;5065196;28;20096;-74
2022/06/18 01:50:56;;;;;;;7.18;3.67;;;22.40;92.70;;;;;;5064379;28;20044;-74
2022/06/18 01:53:30;;;;;;;4.95;3.35;;;22.50;92.20;;;;;;5064865;28;20415;-74
2022/06/18 01:56:14;;;;;;;5.50;3.83;;;22.50;91.80;;;;;;5064433;28;20103;-74
2022/06/18 01:59:03;;;;;;;8.40;3.65;;;22.30;92.10;;;;;;5066072;28;20682;-73
2022/06/18 02:01:34;;;;;;;7.00;4.18;;;22.20;92.10;;;;;;5066802;28;20029;-74
2022/06/18 02:04:02;;;;;;;9.68;3.97;;;22.20;92.20;;;;;;5064383;28;20040;-74
2022/06/18 02:06:30;;;;;;;6.55;3.33;;;22.20;92.10;;;;;;5064708;28;20039;-73
2022/06/18 02:08:55;;;;;;;6.50;3.63;;;22.20;91.90;;;;;;5062991;28;20801;-73
2022/06/18 02:11:22;;;;;;;8.20;4.15;;;22.10;92.30;;;;;;5069713;28;20039;-74
2022/06/18 02:13:58;;;;;;;8.68;3.88;;;22.10;92.20;;;;;;5074287;28;20048;-74
2022/06/18 02:16:27;;;;;;;8.35;4.00;;;22.30;92.00;;;;;;5074762;28;20024;-75
2022/06/18 02:18:53;;;;;;;6.30;4.20;;;22.40;91.70;;;;;;5090914;28;20173;-74
2022/06/18 02:21:23;;;;;;;7.97;4.85;;;22.50;91.30;;;;;;5078371;28;20544;-74
2022/06/18 02:23:53;;;;;;;7.35;4.07;;;22.60;91.80;;;;;;5073564;28;20508;-74
2022/06/18 02:26:22;;;;;;;6.70;3.90;;;22.50;91.70;;;;;;5074897;28;20032;-74
2022/06/18 02:28:50;;;;;;;5.35;3.60;;;22.40;91.80;;;;;;5066373;28;20024;-74
2022/06/18 02:31:24;;;;;;;7.97;4.40;;;22.50;91.70;;;;;;5073164;28;20020;-74
2022/06/18 02:33:54;;;;;;;9.88;4.55;;;22.40;91.80;;;;;;5063134;28;20051;-73
2022/06/18 02:36:23;;;;;;;10.50;5.13;;;22.30;92.50;;;;;;5065684;28;20420;-74
2022/06/18 02:38:56;;;;;;;8.15;4.53;;;22.10;92.90;;;;;;5063904;28;20985;-74
2022/06/18 02:41:22;;;;;;;10.07;4.70;;;22.10;93.20;;;;;;5071081;28;20615;-74
2022/06/18 02:43:49;;;;;;;8.88;4.97;;;21.90;93.30;;;;;;5064462;28;20024;-73
2022/06/18 02:46:16;;;;;;;11.00;5.55;;;21.90;93.50;;;;;;5069771;28;20076;-74
2022/06/18 02:48:42;;;;;;;9.73;5.57;;;21.90;93.90;;;;;;5064491;28;20569;-74
2022/06/18 02:51:10;;;;;;;8.23;4.55;;;22.00;93.30;;;;;;5067290;28;20111;-74
2022/06/18 02:53:36;;;;;;;6.80;4.35;;;22.00;93.20;;;;;;5068219;28;20754;-74
2022/06/18 02:56:04;;;;;;;10.13;5.05;;;22.00;93.00;;;;;;5067957;28;20028;-73
2022/06/18 02:58:37;;;;;;;7.10;4.90;;;21.90;93.30;;;;;;5080365;28;20355;-74
2022/06/18 03:01:07;;;;;;;7.73;4.57;;;21.80;93.40;;;;;;5092399;28;20116;-74
2022/06/18 03:03:39;;;;;;;7.70;4.53;;;21.80;93.60;;;;;;5083954;28;20638;-75
2022/06/18 03:06:06;;;;;;;13.32;5.53;;;21.70;93.80;;;;;;5088705;28;20600;-75
2022/06/18 03:08:33;;;;;;;6.93;5.38;;;21.70;94.40;;;;;;5085425;28;20049;-75
2022/06/18 03:13:45;;;;;;;8.15;5.32;;;21.90;93.90;;;;;;5088755;28;20086;-76
2022/06/18 03:16:15;;;;;;;7.03;5.00;;;22.00;93.90;;;;;;5087294;28;20146;-78
2022/06/18 03:18:42;;;;;;;7.63;5.18;;;22.00;93.80;;;;;;5081249;28;20020;-76
2022/06/18 03:21:23;;;;;;;7.97;5.70;;;22.20;93.40;;;;;;5086827;28;20071;-76
2022/06/18 03:23:49;;;;;;;10.05;5.97;;;22.30;93.20;;;;;;5083953;28;20038;-75
2022/06/18 03:26:16;;;;;;;7.30;6.13;;;22.20;93.70;;;;;;5085025;28;20028;-75
2022/06/18 03:28:43;;;;;;;11.27;5.93;;;22.00;93.80;;;;;;5084766;28;20034;-76
2022/06/18 03:31:09;;;;;;;8.38;5.32;;;21.90;94.00;;;;;;5085803;28;20478;-76
2022/06/18 03:33:35;;;;;;;10.02;5.57;;;21.40;94.80;;;;;;5087625;28;20040;-75
2022/06/18 03:36:02;;;;;;;7.47;5.20;;;21.30;95.00;;;;;;5088557;28;20024;-75
2022/06/18 03:38:28;;;;;;;8.90;5.78;;;21.20;95.20;;;;;;5088662;28;20098;-76
2022/06/18 03:40:54;;;;;;;8.10;5.65;;;21.10;95.60;;;;;;5088938;28;20133;-75
2022/06/18 03:43:22;;;;;;;10.18;5.88;;;21.10;95.50;;;;;;5082840;28;20107;-75
2022/06/18 03:45:51;;;;;;;13.07;5.90;;;21.10;95.70;;;;;;5087258;28;20035;-76
2022/06/18 03:48:26;;;;;;;10.88;5.22;;;21.10;95.80;;;;;;5083735;28;20555;-76
2022/06/18 03:50:52;;;;;;;8.15;5.20;;;21.10;95.50;;;;;;5084491;28;21548;-75
2022/06/18 03:53:17;;;;;;;6.97;5.10;;;21.00;95.70;;;;;;5080438;28;20036;-78
2022/06/18 03:55:44;;;;;;;9.00;5.90;;;21.00;95.60;;;;;;5086681;28;20028;-75
2022/06/18 03:58:10;;;;;;;6.80;4.22;;;21.00;95.50;;;;;;5086744;28;20032;-77
2022/06/18 04:00:36;;;;;;;10.43;5.65;;;21.10;95.50;;;;;;5083923;28;20039;-75
2022/06/18 04:03:02;;;;;;;8.48;4.97;;;21.10;95.40;;;;;;5084222;28;20081;-76
2022/06/18 04:05:28;;;;;;;9.27;5.55;;;21.10;95.90;;;;;;5082736;28;20040;-76
2022/06/18 04:07:54;;;;;;;9.20;5.40;;;21.00;96.20;;;;;;5084824;28;20093;-76
2022/06/18 04:10:22;;;;;;;8.18;4.85;;;21.10;95.90;;;;;;5084364;28;20043;-76
2022/06/18 04:12:48;;;;;;;10.35;5.68;;;21.20;95.70;;;;;;5083121;28;20937;-76
2022/06/18 04:15:15;;;;;;;10.43;5.30;;;21.30;95.50;;;;;;5080746;28;20048;-78
2022/06/18 04:17:42;;;;;;;7.22;5.70;;;21.50;95.20;;;;;;5082445;28;20073;-75
2022/06/18 04:20:18;;;;;;;7.75;5.53;;;21.50;95.20;;;;;;5082183;28;20124;-76
2022/06/18 04:22:43;;;;;;;7.85;5.65;;;21.40;95.50;;;;;;5082737;28;20571;-76
2022/06/18 04:25:09;;;;;;;9.45;5.63;;;21.20;96.10;;;;;;5075768;28;20040;-76
2022/06/18 04:27:35;;;;;;;8.98;5.22;;;21.20;96.00;;;;;;5084904;28;20095;-76
2022/06/18 04:30:00;;;;;;;7.60;4.97;;;21.40;95.60;;;;;;5082102;28;20031;-75
2022/06/18 04:32:26;;;;;;;9.70;5.32;;;21.50;95.20;;;;;;5080041;28;20097;-75
2022/06/18 04:34:52;;;;;;;10.23;6.30;;;21.50;95.20;;;;;;5081636;28;20032;-77
2022/06/18 04:37:17;;;;;;;6.70;5.47;;;21.50;95.90;;;;;;5082038;28;20060;-75
2022/06/18 04:39:43;;;;;;;6.90;5.45;;;21.60;95.40;;;;;;5082014;28;20100;-79
2022/06/18 04:42:09;;;;;;;10.45;6.15;;;21.60;95.40;;;;;;5084601;28;20020;-78
2022/06/18 04:44:34;;;;;;;10.52;6.05;;;21.70;95.50;;;;;;5082227;28;20062;-76
2022/06/18 04:47:00;;;;;;;11.45;6.32;;;21.30;96.50;;;;;;5082271;28;20028;-76
2022/06/18 04:49:26;;;;;;;8.90;5.80;;;21.40;96.80;;;;;;5084091;28;20516;-75
2022/06/18 04:51:51;;;;;;;9.90;6.50;;;21.50;96.60;;;;;;5082494;28;20096;-74
2022/06/18 04:54:17;;;;;;;9.05;6.10;;;21.50;97.00;;;;;;5082799;28;20056;-75
2022/06/18 04:56:42;;;;;;;10.40;6.60;;;21.40;97.40;;;;;;5080889;28;20024;-77
2022/06/18 04:59:08;;;;;;;12.43;6.18;;;21.40;97.50;;;;;;5082402;28;20024;-76
2022/06/18 05:01:34;;;;;;;10.32;5.88;;;21.50;97.20;;;;;;5083067;28;20036;-78
2022/06/18 05:04:00;;;;;;;7.78;6.45;;;21.50;97.10;;;;;;5081700;28;20028;-75
2022/06/18 05:06:26;;;;;;;11.57;6.10;;;21.30;97.70;;;;;;5083708;28;20038;-76
2022/06/18 05:08:52;;;;;;;8.60;6.13;;;20.90;98.10;;;;;;5081285;28;20028;-80
2022/06/18 05:11:18;;;;;;;8.82;5.88;;;20.80;98.50;;;;;;5084698;28;20042;-76
2022/06/18 05:13:43;;;;;;;10.75;6.53;;;21.00;98.00;;;;;;5082514;28;20032;-77
2022/06/18 05:16:09;;;;;;;8.52;6.88;;;21.20;97.50;;;;;;5082967;28;20020;-76
2022/06/18 05:18:35;;;;;;;9.02;6.43;;;21.40;96.90;;;;;;5081582;28;20036;-76
2022/06/18 05:21:02;;;;;;;10.77;6.45;;;21.30;97.90;;;;;;5081526;28;20488;-76
2022/06/18 05:23:28;;;;;;;8.30;5.80;;;21.40;97.90;;;;;;5082565;28;20098;-76
2022/06/18 05:25:59;;;;;;;9.20;5.93;;;21.20;98.50;;;;;;5083436;28;20036;-75
2022/06/18 05:28:26;;;;;;;10.50;7.55;;;21.20;98.90;;;;;;5082795;28;20469;-75
2022/06/18 05:30:52;;;;;;;9.68;6.80;;;21.40;99.10;;;;;;5078716;28;20105;-77
2022/06/18 05:33:18;;;;;;;8.45;6.50;;;21.60;99.20;;;;;;5080425;28;20039;-77
2022/06/18 05:35:44;;;;;;;10.35;6.20;;;21.60;98.80;;;;;;5082144;28;20055;-76
2022/06/18 05:38:19;;;;;;;9.85;6.45;;;21.60;98.90;;;;;;5078935;28;20028;-77
2022/06/18 05:40:45;;;;;;;9.10;6.45;;;21.60;99.10;;;;;;5082442;28;20039;-78
2022/06/18 05:43:11;;;;;;;7.75;5.90;;;21.60;99.50;;;;;;5081890;28;20020;-75
2022/06/18 05:45:37;;;;;;;7.72;5.80;;;21.60;99.30;;;;;;5084154;28;20082;-76
2022/06/18 05:48:04;;;;;;;12.35;6.38;;;21.70;98.00;;;;;;5084736;28;20023;-76
2022/06/18 05:50:29;;;;;;;9.02;6.38;;;21.80;97.30;;;;;;5084751;28;20050;-76
2022/06/18 05:52:55;;;;;;;11.55;7.00;;;21.80;97.90;;;;;;5084439;28;20027;-76
2022/06/18 05:55:22;;;;;;;10.18;7.55;;;21.80;98.20;;;;;;5078377;28;20473;-78
2022/06/18 05:57:50;;;;;;;9.23;7.28;;;21.80;97.90;;;;;;5083673;28;20032;-75
2022/06/18 06:00:19;;;;;;;16.40;7.53;;;21.80;97.80;;;;;;5078906;28;20028;-74
2022/06/18 06:02:45;;;;;;;8.32;7.15;;;21.90;97.60;;;;;;5084111;28;20658;-75
2022/06/18 06:05:10;;;;;;;12.02;7.13;;;21.80;98.40;;;;;;5083194;28;20024;-74
2022/06/18 06:07:36;;;;;;;8.43;6.72;;;21.70;98.50;;;;;;5085367;28;20054;-75
2022/06/18 06:12:49;;;;;;;12.55;7.32;;;22.00;98.90;;;;;;5086742;28;20039;-74
2022/06/18 06:15:15;;;;;;;13.98;7.72;;;22.00;98.10;;;;;;5083837;28;20047;-77
2022/06/18 06:17:44;;;;;;;11.07;7.35;;;22.00;97.70;;;;;;5090259;28;20036;-76
2022/06/18 06:20:24;;;;;;;9.10;7.40;;;22.10;97.40;;;;;;5083280;28;20020;-72
2022/06/18 06:22:50;;;;;;;10.32;6.47;;;22.20;96.80;;;;;;5080871;28;20130;-71
2022/06/18 06:25:16;;;;;;;9.75;6.47;;;22.10;96.00;;;;;;5078586;28;20096;-75
2022/06/18 06:27:42;;;;;;;8.75;7.10;;;22.20;96.00;;;;;;5084970;28;20032;-72
2022/06/18 06:30:12;;;;;;;10.10;7.03;;;22.20;96.20;;;;;;5081907;28;20122;-72
2022/06/18 06:32:38;;;;;;;10.80;6.60;;;22.30;96.20;;;;;;5085594;28;20024;-72
2022/06/18 06:35:04;;;;;;;9.10;7.03;;;22.30;96.20;;;;;;5082418;28;20051;-72
2022/06/18 06:37:29;;;;;;;9.52;6.65;;;22.40;96.10;;;;;;5084479;28;20518;-74
2022/06/18 06:39:55;;;;;;;10.05;6.95;;;22.40;96.30;;;;;;5081441;28;20024;-74
2022/06/18 06:42:21;;;;;;;11.05;7.40;;;22.50;96.70;;;;;;5085186;28;20062;-74
2022/06/18 06:44:46;;;;;;;8.52;7.00;;;22.70;96.60;;;;;;5082619;28;20040;-75
2022/06/18 06:47:12;;;;;;;11.80;7.93;;;22.80;96.30;;;;;;5083129;28;20111;-73
2022/06/18 06:49:37;;;;;;;10.93;7.45;;;22.90;96.20;;;;;;5085043;28;20031;-73
2022/06/18 06:52:03;;;;;;;8.18;6.80;;;23.00;96.20;;;;;;5086851;28;20028;-75
2022/06/18 06:54:29;;;;;;;11.73;7.28;;;23.20;95.70;;;;;;5084750;28;20528;-75
2022/06/18 06:59:39;;;;;;;12.20;7.82;;;23.30;96.00;;;;;;5085811;28;20686;-75
2022/06/18 07:02:16;;;;;;;10.32;7.25;;;23.20;95.60;;;;;;5087969;28;20036;-76
2022/06/18 07:04:42;;;;;;;9.38;6.93;;;23.40;95.90;;;;;;5085564;28;20156;-75
2022/06/18 07:07:12;;;;;;;10.02;6.70;;;23.50;95.70;;;;;;5087128;28;20074;-74
2022/06/18 07:09:39;;;;;;;10.82;7.07;;;23.70;95.30;;;;;;5084482;28;20028;-76
2022/06/18 07:12:06;;;;;;;9.63;7.03;;;23.90;95.00;;;;;;5087327;28;20464;-76
2022/06/18 07:14:31;;;;;;;13.45;7.55;;;24.10;94.80;;;;;;5083796;28;20051;-74
2022/06/18 07:16:57;;;;;;;9.52;6.93;;;24.40;94.50;;;;;;5084577;28;20040;-75
2022/06/18 07:19:23;;;;;;;11.73;7.10;;;24.50;94.30;;;;;;5084595;28;20043;-78
2022/06/18 07:21:52;;;;;;;8.88;6.85;;;24.90;93.80;;;;;;5083511;28;20095;-75
2022/06/18 07:24:19;;;;;;;9.27;6.05;;;25.10;92.70;;;;;;5085134;28;20819;-74
2022/06/18 07:26:45;;;;;;;10.50;6.63;;;24.90;92.80;;;;;;5081156;28;20036;-75
2022/06/18 07:29:11;;;;;;;11.35;6.70;;;25.00;92.40;;;;;;5084700;28;20540;-75
2022/06/18 07:31:36;;;;;;;12.05;7.05;;;25.40;92.60;;;;;;5081933;28;20028;-75
2022/06/18 07:34:05;;;;;;;10.40;7.25;;;26.10;92.10;;;;;;5085262;28;20036;-74
2022/06/18 07:36:32;;;;;;;13.35;7.72;;;27.00;91.70;;;;;;5082339;28;20484;-74
2022/06/18 07:39:02;;;;;;;10.52;6.80;;;27.70;90.60;;;;;;5080344;28;20012;-74
2022/06/18 07:41:43;;;;;;;8.30;6.40;;;27.90;89.50;;;;;;5085570;28;20032;-75
2022/06/18 07:44:10;;;;;;;9.77;6.18;;;28.50;88.80;;;;;;5084671;28;20024;-74
2022/06/18 07:46:36;;;;;;;8.02;6.20;;;28.30;88.70;;;;;;5087431;28;20036;-76
2022/06/18 07:49:02;;;;;;;8.48;5.25;;;28.50;86.40;;;;;;5083353;28;20040;-77
2022/06/18 07:51:28;;;;;;;7.60;5.70;;;28.30;86.60;;;;;;5077118;28;21167;-74
2022/06/18 07:53:54;;;;;;;7.95;6.03;;;28.00;87.70;;;;;;5082526;28;20464;-76
2022/06/18 07:56:20;;;;;;;9.23;5.97;;;28.20;87.60;;;;;;5082862;28;20162;-75
2022/06/18 07:58:46;;;;;;;10.77;5.85;;;28.20;87.40;;;;;;5087486;28;20118;-75
2022/06/18 08:01:11;;;;;;;9.35;5.53;;;27.30;88.60;;;;;;5086453;28;20024;-76
2022/06/18 08:03:38;;;;;;;9.52;5.88;;;27.00;89.30;;;;;;5083952;28;20485;-75
2022/06/18 08:06:05;;;;;;;7.82;6.03;;;27.30;90.20;;;;;;5083536;28;20110;-75
2022/06/18 08:08:30;;;;;;;11.10;7.10;;;27.20;88.70;;;;;;5087138;28;20497;-75
2022/06/18 08:10:56;;;;;;;11.52;6.07;;;27.20;89.30;;;;;;5086207;28;20024;-75
2022/06/18 08:13:22;;;;;;;7.70;6.10;;;27.60;88.20;;;;;;5085474;28;20032;-75
2022/06/18 08:28:04;;;;;;;8.82;6.15;;;27.50;87.00;;;;;;5099692;27;20472;-74
2022/06/18 08:30:30;;;;;;;10.35;6.10;;;27.60;87.90;;;;;;5096727;28;20038;-74
2022/06/18 08:32:56;;;;;;;9.88;5.88;;;27.80;88.00;;;;;;5099059;28;20071;-72
2022/06/18 08:35:21;;;;;;;10.00;6.40;;;27.90;89.00;;;;;;5098363;28;20059;-72
2022/06/18 08:37:47;;;;;;;12.88;6.07;;;27.90;87.80;;;;;;5102681;28;20085;-72
2022/06/18 08:40:34;;;;;;;7.60;5.95;;;28.10;87.00;;;;;;5101867;28;20030;-72
2022/06/18 08:43:29;;;;;;;12.50;6.50;;;28.30;86.30;;;;;;5101804;28;20028;-73
2022/06/18 08:46:07;;;;;;;8.52;5.93;;;28.40;86.00;;;;;;5100451;28;20537;-72
2022/06/18 08:48:38;;;;;;;7.55;6.15;;;28.10;86.00;;;;;;5101846;28;20031;-72
2022/06/18 08:51:33;;;;;;;11.70;6.53;;;28.20;86.90;;;;;;5099509;28;20522;-72
2022/06/18 08:54:16;;;;;;;10.55;6.35;;;28.10;87.30;;;;;;5100853;28;20039;-72
2022/06/18 08:56:48;;;;;;;;;;;28.20;85.40;;;;;;5091911;28;20727;-72
2022/06/18 08:59:37;;;;;;;8.02;5.82;;;27.80;85.10;;;;;;5095947;28;19908;-72
2022/06/18 09:02:31;;;;;;;9.23;5.88;;;28.20;85.90;;;;;;5096951;28;20081;-72
2022/06/18 09:05:20;;;;;;;7.90;5.85;;;28.60;85.70;;;;;;5100677;28;20120;-73
2022/06/18 09:07:48;;;;;;;8.93;5.50;;;28.60;85.50;;;;;;5096303;28;20043;-72
2022/06/18 09:10:17;;;;;;;6.25;5.45;;;28.70;86.80;;;;;;5101200;28;20028;-71
2022/06/18 09:12:56;;;;;;;8.15;5.82;;;28.90;87.30;;;;;;5099782;28;20511;-74
2022/06/18 09:15:34;;;;;;;8.80;5.80;;;29.00;85.70;;;;;;5104142;28;20051;-73
2022/06/18 09:18:29;;;;;;;7.95;5.78;;;29.20;86.90;;;;;;5098387;28;20562;-72
2022/06/18 09:20:58;;;;;;;10.10;5.32;;;28.90;85.20;;;;;;5083968;28;20505;-72
2022/06/18 09:23:29;;;;;;;8.50;6.25;;;28.50;84.80;;;;;;5099048;28;20035;-73
2022/06/18 09:25:57;;;;;;;9.07;5.63;;;28.30;84.60;;;;;;5099291;28;20052;-73
2022/06/18 09:28:26;;;;;;;9.50;6.07;;;28.40;84.50;;;;;;5089033;28;20945;-72
2022/06/18 09:30:58;;;;;;;8.45;5.93;;;28.90;87.90;;;;;;5086048;28;20196;-72
2022/06/18 09:33:47;;;;;;;9.53;6.43;;;28.80;84.50;;;;;;5086190;28;20446;-72
2022/06/18 09:36:19;;;;;;;6.97;5.07;;;28.80;85.40;;;;;;5081407;28;20035;-72
2022/06/18 09:39:02;;;;;;;9.00;4.80;;;29.30;86.90;;;;;;5087670;28;20055;-72
2022/06/18 09:41:30;;;;;;;;;;;29.00;83.60;;;;;;5088863;28;20458;-72
2022/06/18 09:44:33;;;;;;;6.35;4.43;;;29.20;86.40;;;;;;5088200;28;19970;-72
2022/06/18 09:47:10;;;;;;;7.90;4.90;;;29.20;83.30;;;;;;5080912;28;20036;-71
2022/06/18 09:49:36;;;;;;;8.10;5.72;;;28.90;83.10;;;;;;5076825;28;20031;-72
2022/06/18 09:52:11;;;;;;;9.43;6.18;;;29.10;86.30;;;;;;5084831;28;20381;-72
2022/06/18 09:54:45;;;;;;;6.32;4.75;;;29.20;83.40;;;;;;5082903;28;20073;-72
2022/06/18 09:57:11;;;;;;;;;;;29.00;83.30;;;;;;5071078;28;20556;-72
2022/06/18 09:59:45;;;;;;;7.38;4.88;;;28.70;83.90;;;;;;5082355;28;19947;-72
2022/06/18 10:02:22;;;;;;;7.18;4.55;;;29.50;85.90;;;;;;5077440;28;20051;-72
2022/06/18 10:07:36;;;;;;;6.53;4.05;;;29.90;84.00;;;;;;5083209;28;20094;-73
2022/06/18 10:10:17;;;;;;;6.65;4.72;;;29.50;86.00;;;;;;5081771;28;20469;-72
2022/06/18 10:12:56;;;;;;;7.57;4.45;;;30.00;86.10;;;;;;5082224;28;20035;-71
2022/06/18 10:15:24;;;;;;;8.55;4.53;;;30.40;85.30;;;;;;5077947;28;20086;-72
2022/06/18 10:18:11;;;;;;;7.32;3.70;;;29.90;82.60;;;;;;5078571;28;20028;-74
2022/06/18 10:20:45;;;;;;;6.05;4.65;;;29.80;83.80;;;;;;5078178;28;20036;-74
2022/06/18 10:23:38;;;;;;;7.15;4.45;;;29.70;83.40;;;;;;5081023;28;20032;-73
2022/06/18 10:26:25;;;;;;;6.20;4.83;;;30.10;84.20;;;;;;5080692;28;20040;-73
2022/06/18 10:29:04;;;;;;;8.52;4.10;;;30.50;83.50;;;;;;5082943;28;20300;-73
2022/06/18 10:31:47;;;;;;;8.23;4.78;;;31.10;84.20;;;;;;5079609;28;20047;-74
2022/06/18 10:34:43;;;;;;;9.77;4.85;;;31.20;84.30;;;;;;5080458;28;20036;-73
2022/06/18 10:37:17;;;;;;;6.15;4.65;;;31.20;83.30;;;;;;5076065;28;20082;-73
2022/06/18 10:39:52;;;;;;;7.90;5.00;;;31.50;80.50;;;;;;5079137;28;20094;-73
2022/06/18 10:42:26;;;;;;;5.90;4.47;;;31.10;80.10;;;;;;5070556;28;20101;-74
2022/06/18 10:45:41;;;;;;;7.45;4.18;;;31.30;80.00;;;;;;5077158;28;20038;-74
2022/06/18 10:48:19;;;;;;;7.10;4.35;;;31.50;79.70;;;;;;5009278;28;20144;-73
2022/06/18 10:50:52;;;;;;;8.60;4.70;;;31.30;81.60;;;;;;5070476;28;20044;-73
2022/06/18 10:53:20;;;;;;;9.73;4.72;;;31.60;82.70;;;;;;5072063;28;20493;-76
2022/06/18 10:56:06;;;;;;;10.68;4.90;;;31.40;80.80;;;;;;5066734;28;20036;-78
2022/06/18 10:58:32;;;;;;;11.75;4.72;;;31.60;81.90;;;;;;5086267;28;20024;-75
2022/06/18 11:01:13;;;;;;;6.43;4.85;;;31.20;81.10;;;;;;5071747;28;20076;-75
2022/06/18 11:03:39;;;;;;;5.88;4.35;;;31.40;81.50;;;;;;5068608;28;20032;-75
2022/06/18 11:06:13;;;;;;;6.82;4.55;;;31.40;81.80;;;;;;5068757;28;20081;-78
2022/06/18 11:08:58;;;;;;;8.70;4.57;;;31.70;80.10;;;;;;5069700;28;20064;-76
2022/06/18 11:11:28;;;;;;;7.97;4.43;;;31.90;80.40;;;;;;5082517;28;20036;-76
2022/06/18 11:13:54;;;;;;;6.15;4.20;;;32.00;80.90;;;;;;5080508;28;20048;-75
2022/06/18 11:16:28;;;;;;;6.88;4.32;;;32.10;78.40;;;;;;5078552;28;20040;-76
2022/06/18 11:18:58;;;;;;;6.32;4.35;;;32.30;79.10;;;;;;5077978;28;20024;-73
2022/06/18 11:21:48;;;;;;;5.65;4.15;;;32.40;79.80;;;;;;5084848;28;20209;-74
2022/06/18 11:24:16;;;;;;;5.25;3.75;;;32.30;81.20;;;;;;5085316;28;20036;-74
2022/06/18 11:26:49;;;;;;;10.13;5.18;;;32.00;79.30;;;;;;5081630;28;20090;-73
2022/06/18 11:29:28;;;;;;;;;;;32.20;78.00;;;;;;5083080;28;20028;-72
2022/06/18 11:31:57;;;;;;;8.65;4.82;;;32.30;79.00;;;;;;5083520;28;19907;-74
2022/06/18 11:34:26;;;;;;;12.30;5.47;;;32.60;79.50;;;;;;5078746;28;20111;-74
2022/06/18 11:36:55;;;;;;;10.13;4.10;;;32.70;78.50;;;;;;5086609;28;20067;-74
2022/06/18 11:39:36;;;;;;;8.75;4.20;;;32.90;78.20;;;;;;5087726;28;20032;-73
2022/06/18 11:42:10;;;;;;;12.40;4.60;;;32.60;77.50;;;;;;5084498;28;20042;-77
2022/06/18 11:44:43;;;;;;;5.82;4.55;;;32.40;77.80;;;;;;5082021;28;20067;-75
2022/06/18 11:47:21;;;;;;;6.80;4.38;;;32.40;78.50;;;;;;5079613;28;20035;-72
2022/06/18 11:50:07;;;;;;;5.57;3.53;;;32.50;78.20;;;;;;5083559;28;20031;-72
2022/06/18 11:52:48;;;;;;;8.98;3.97;;;32.50;77.20;;;;;;5084628;28;20028;-73
2022/06/18 11:55:36;;;;;;;5.13;3.47;;;32.60;77.70;;;;;;5092451;28;20052;-75
2022/06/18 11:58:10;;;;;;;14.15;4.55;;;32.80;77.80;;;;;;5086502;28;20096;-75
2022/06/18 12:01:04;;;;;;;10.18;3.83;;;32.70;76.90;;;;;;5086233;28;20028;-74
2022/06/18 12:03:38;;;;;;;9.55;4.47;;;32.50;76.70;;;;;;5076677;28;20032;-73
2022/06/18 12:06:07;;;;;;;5.90;3.30;;;32.50;77.00;;;;;;5082905;28;20473;-74
2022/06/18 12:08:33;;;;;;;5.88;3.10;;;32.50;76.30;;;;;;5085455;28;20107;-74
2022/06/18 12:11:33;;;;;;;7.55;3.75;;;32.50;77.40;;;;;;5084529;28;20028;-74
2022/06/18 12:14:18;;;;;;;6.65;3.58;;;32.50;76.40;;;;;;5070628;28;20028;-74
2022/06/18 12:16:55;;;;;;;6.55;3.78;;;32.30;77.20;;;;;;5081419;28;20089;-74
2022/06/18 12:19:26;;;;;;;8.18;3.20;;;32.60;75.70;;;;;;5083663;28;20036;-74
2022/06/18 12:21:55;;;;;;;5.78;3.42;;;32.50;76.40;;;;;;5082211;28;20115;-74
2022/06/18 12:24:41;;;;;;;7.45;3.63;;;32.90;78.10;;;;;;5087316;28;20583;-74
2022/06/18 12:27:22;;;;;;;5.43;3.65;;;32.90;76.00;;;;;;5084931;28;20079;-74
2022/06/18 12:30:07;;;;;;;6.57;3.45;;;32.90;76.30;;;;;;5087231;28;20028;-74
2022/06/18 12:32:46;;;;;;;8.00;3.67;;;32.80;76.40;;;;;;5085360;28;20044;-74
2022/06/18 12:35:35;;;;;;;6.95;3.85;;;32.60;75.70;;;;;;5086649;28;20421;-75
2022/06/18 12:38:33;;;;;;;7.47;3.20;;;32.60;75.90;;;;;;5058949;28;20464;-74
2022/06/18 12:41:04;;;;;;;10.77;4.25;;;32.40;75.50;;;;;;5085678;28;20477;-74
2022/06/18 12:43:41;;;;;;;7.22;4.43;;;32.70;76.60;;;;;;5082867;28;20034;-74
2022/06/18 12:46:25;;;;;;;6.93;3.22;;;32.60;75.70;;;;;;5084980;28;20025;-75
2022/06/18 12:49:05;;;;;;;8.82;3.60;;;32.80;76.40;;;;;;5084900;28;20115;-74
2022/06/18 12:51:31;;;;;;;8.75;3.70;;;32.60;76.70;;;;;;5086252;28;20480;-74
2022/06/18 12:54:02;;;;;;;5.60;3.88;;;32.40;75.60;;;;;;5083005;28;20110;-75
2022/06/18 12:56:42;;;;;;;7.18;4.40;;;32.50;76.30;;;;;;5076667;28;20040;-74
2022/06/18 12:59:20;;;;;;;9.02;3.17;;;32.60;76.50;;;;;;5086174;28;20104;-74
2022/06/18 13:01:52;;;;;;;9.75;3.65;;;32.80;76.80;;;;;;5083244;28;20063;-74
2022/06/18 13:04:56;;;;;;;13.82;3.58;;;32.60;75.80;;;;;;5089183;28;20102;-74
2022/06/18 13:07:56;;;;;;;6.68;3.22;;;32.70;76.50;;;;;;5066653;28;20048;-75
2022/06/18 13:10:30;;;;;;;6.30;3.33;;;32.40;76.50;;;;;;5076647;28;20085;-74
2022/06/18 13:13:13;;;;;;;7.10;4.05;;;32.80;76.80;;;;;;5089166;28;20098;-74
2022/06/18 13:15:45;;;;;;;6.63;3.80;;;32.90;76.50;;;;;;5087555;28;20028;-74
2022/06/18 13:18:17;;;;;;;7.13;3.95;;;32.60;75.60;;;;;;5089556;28;20428;-75
2022/06/18 13:20:54;;;;;;;4.72;3.50;;;32.50;76.50;;;;;;5086875;28;20024;-75
2022/06/18 13:29:23;;;;;;;5.82;3.28;;;32.50;76.00;;;;;;5082230;28;20507;-74
2022/06/18 13:31:55;;;;;;;8.00;3.33;;;32.70;76.60;;;;;;5087408;28;20497;-74
2022/06/18 13:34:41;;;;;;;12.95;3.67;;;32.40;76.90;;;;;;5086722;28;20032;-74
2022/06/18 13:37:19;;;;;;;10.55;3.75;;;32.60;76.80;;;;;;5084566;28;20097;-75
2022/06/18 13:40:06;;;;;;;5.97;3.08;;;32.60;76.20;;;;;;5087304;28;20024;-74
2022/06/18 13:42:54;;;;;;;8.63;3.85;;;32.70;76.20;;;;;;5084200;28;20051;-74